Time;durP1;ratioP1;P1;durP2;ratioP2;P2;SDS_P1;SDS_P2;PMS_P1;PMS_P2;Temp;Humidity;BMP_temperature;BMP_pressure;BME280_temperature;BME280_humidity;BME280_pressure;Samples;Min_cycle;Max_cycle;Signal;HPM_P1;HPM_P2
2022/08/30 00:01:07;;;;;;;4.97;4.10;;;19.20;99.90;;;;;;5071360;28;20183;-64
2022/08/30 00:03:36;;;;;;;4.13;3.80;;;19.20;99.90;;;;;;5073293;28;20209;-64
2022/08/30 00:06:05;;;;;;;8.27;4.37;;;19.30;99.90;;;;;;5072078;28;20202;-64
2022/08/30 00:08:31;;;;;;;4.50;4.10;;;19.30;99.90;;;;;;5089881;28;20631;-64
2022/08/30 00:10:57;;;;;;;4.23;3.83;;;19.20;99.90;;;;;;5092645;28;20244;-63
2022/08/30 00:13:23;;;;;;;3.93;3.50;;;19.20;99.90;;;;;;5076268;28;20290;-64
2022/08/30 00:15:49;;;;;;;6.23;4.20;;;19.20;99.90;;;;;;5072243;28;20181;-65
2022/08/30 00:18:17;;;;;;;4.20;3.80;;;19.20;99.90;;;;;;5085905;28;20280;-64
2022/08/30 00:20:44;;;;;;;4.20;3.80;;;19.20;99.90;;;;;;5092575;28;20238;-65
2022/08/30 00:23:10;;;;;;;4.60;4.20;;;19.20;99.90;;;;;;5078877;28;20238;-64
2022/08/30 00:25:36;;;;;;;4.63;3.70;;;19.10;99.90;;;;;;5071773;28;20218;-63
2022/08/30 00:28:02;;;;;;;4.33;3.70;;;19.00;99.90;;;;;;5082917;28;20178;-66
2022/08/30 00:30:29;;;;;;;5.83;4.67;;;18.90;99.90;;;;;;5084034;28;20206;-64
2022/08/30 00:32:54;;;;;;;4.23;3.93;;;18.90;99.90;;;;;;5072031;28;20194;-66
2022/08/30 00:35:21;;;;;;;5.57;4.20;;;18.80;99.90;;;;;;5077603;28;20181;-67
2022/08/30 00:37:48;;;;;;;4.50;4.10;;;18.70;99.90;;;;;;5092319;28;20650;-66
2022/08/30 00:40:14;;;;;;;4.60;4.20;;;18.60;99.90;;;;;;5087463;28;20181;-66
2022/08/30 00:42:41;;;;;;;5.00;4.50;;;18.50;99.90;;;;;;5072138;28;20663;-66
2022/08/30 00:45:30;;;;;;;4.93;4.27;;;18.40;99.90;;;;;;5077743;28;20554;-66
2022/08/30 00:47:56;;;;;;;4.47;4.07;;;18.30;99.90;;;;;;5092306;28;20185;-67
2022/08/30 00:50:26;;;;;;;4.93;4.33;;;18.20;99.90;;;;;;5082108;28;20240;-66
2022/08/30 00:52:55;;;;;;;6.03;5.43;;;18.10;99.90;;;;;;5071707;28;20209;-66
2022/08/30 00:55:21;;;;;;;4.20;3.90;;;18.10;99.90;;;;;;5080116;28;20189;-66
2022/08/30 00:57:51;;;;;;;4.47;4.07;;;18.10;99.90;;;;;;5092021;28;20169;-65
2022/08/30 01:00:17;;;;;;;7.43;5.17;;;18.10;99.90;;;;;;5081629;28;20728;-66
2022/08/30 01:02:43;;;;;;;8.00;5.70;;;18.10;99.90;;;;;;5071718;28;20193;-66
2022/08/30 01:05:10;;;;;;;4.57;4.23;;;18.10;99.90;;;;;;5088776;28;20205;-66
2022/08/30 01:07:40;;;;;;;6.53;4.63;;;18.10;99.90;;;;;;5092139;28;20162;-66
2022/08/30 01:10:08;;;;;;;5.30;4.40;;;18.10;99.90;;;;;;5074701;28;20239;-65
2022/08/30 01:12:35;;;;;;;4.83;4.33;;;18.10;99.90;;;;;;5071549;28;20213;-66
2022/08/30 01:15:03;;;;;;;4.77;4.37;;;18.10;99.90;;;;;;5086513;28;20557;-67
2022/08/30 01:17:29;;;;;;;5.27;4.87;;;18.10;99.90;;;;;;5091664;28;20185;-65
2022/08/30 01:20:00;;;;;;;5.87;5.40;;;18.10;99.90;;;;;;5077429;28;20242;-64
2022/08/30 01:22:47;;;;;;;5.37;5.00;;;18.00;99.90;;;;;;5071212;28;20217;-64
2022/08/30 01:25:16;;;;;;;6.97;6.47;;;18.00;99.90;;;;;;5086020;28;20200;-64
2022/08/30 01:27:49;;;;;;;5.47;5.17;;;17.90;99.90;;;;;;5090299;28;20268;-64
2022/08/30 01:30:14;;;;;;;6.53;5.93;;;17.90;99.90;;;;;;5066940;28;20585;-64
2022/08/30 01:32:43;;;;;;;5.47;4.97;;;17.80;99.90;;;;;;5071308;28;20247;-65
2022/08/30 01:35:11;;;;;;;4.77;4.37;;;17.90;99.90;;;;;;5050867;28;20202;-64
2022/08/30 01:37:37;;;;;;;5.57;5.13;;;17.90;99.90;;;;;;5070243;28;20188;-64
2022/08/30 01:40:05;;;;;;;6.03;5.63;;;17.90;99.90;;;;;;5071167;28;20231;-64
2022/08/30 01:42:31;;;;;;;6.17;5.67;;;17.90;99.90;;;;;;5086283;28;20197;-64
2022/08/30 01:44:56;;;;;;;6.97;6.27;;;17.90;99.90;;;;;;5074973;28;20198;-65
2022/08/30 01:47:22;;;;;;;8.40;5.47;;;18.00;99.90;;;;;;5075108;28;20182;-64
2022/08/30 01:49:49;;;;;;;5.70;5.20;;;18.00;99.90;;;;;;5086907;28;20230;-63
2022/08/30 01:52:16;;;;;;;5.30;4.80;;;18.10;99.90;;;;;;5094920;28;20209;-65
2022/08/30 01:54:44;;;;;;;5.20;4.77;;;18.10;99.90;;;;;;5093280;28;20268;-64
2022/08/30 01:57:12;;;;;;;6.77;4.53;;;18.10;99.90;;;;;;5095199;28;20647;-64
2022/08/30 01:59:41;;;;;;;4.83;4.47;;;18.10;99.90;;;;;;5075035;28;20209;-65
2022/08/30 02:02:08;;;;;;;4.70;4.30;;;18.10;99.90;;;;;;5074302;28;20205;-66
2022/08/30 02:04:35;;;;;;;5.60;4.00;;;18.00;99.90;;;;;;5082836;28;20287;-64
2022/08/30 02:07:01;;;;;;;6.83;4.13;;;18.00;99.90;;;;;;5083447;28;20203;-65
2022/08/30 02:09:27;;;;;;;5.17;4.23;;;18.00;99.90;;;;;;5074905;28;20264;-64
2022/08/30 02:11:53;;;;;;;6.00;4.67;;;17.90;99.90;;;;;;5084125;28;20686;-64
2022/08/30 02:14:18;;;;;;;4.37;4.07;;;17.90;99.90;;;;;;5094425;28;20165;-64
2022/08/30 02:16:45;;;;;;;6.53;5.93;;;17.80;99.90;;;;;;5086656;28;20186;-64
2022/08/30 02:19:11;;;;;;;5.07;4.77;;;17.70;99.90;;;;;;5074500;28;20188;-64
2022/08/30 02:21:36;;;;;;;5.97;4.47;;;17.60;99.90;;;;;;5080698;28;20181;-64
2022/08/30 02:24:02;;;;;;;5.07;4.77;;;17.50;99.90;;;;;;5093311;28;20662;-64
2022/08/30 02:26:28;;;;;;;7.77;7.10;;;17.50;99.90;;;;;;5089726;28;20223;-64
2022/08/30 02:28:53;;;;;;;5.07;4.50;;;17.50;99.90;;;;;;5074429;28;20186;-65
2022/08/30 02:31:21;;;;;;;4.70;4.33;;;17.50;99.90;;;;;;5076756;28;20600;-64
2022/08/30 02:33:49;;;;;;;5.00;4.60;;;17.60;99.90;;;;;;5094269;28;20190;-64
2022/08/30 02:36:15;;;;;;;6.17;5.57;;;17.70;99.90;;;;;;5092338;28;20176;-64
2022/08/30 02:38:40;;;;;;;5.80;5.20;;;17.70;99.90;;;;;;5074294;28;20174;-64
2022/08/30 02:41:06;;;;;;;6.13;4.50;;;17.70;99.90;;;;;;5073985;28;20189;-64
2022/08/30 02:43:32;;;;;;;5.00;4.60;;;17.70;99.90;;;;;;5093747;28;20201;-65
2022/08/30 02:45:57;;;;;;;7.13;4.77;;;17.60;99.90;;;;;;5078193;28;20210;-64
2022/08/30 02:48:24;;;;;;;5.63;5.23;;;17.60;99.90;;;;;;5073988;28;20552;-64
2022/08/30 02:50:51;;;;;;;6.07;5.57;;;17.60;99.90;;;;;;5087907;28;20265;-64
2022/08/30 02:53:17;;;;;;;9.63;5.30;;;17.50;99.90;;;;;;5093410;28;20212;-64
2022/08/30 02:55:44;;;;;;;5.20;4.80;;;17.50;99.90;;;;;;5080936;28;20198;-65
2022/08/30 02:58:10;;;;;;;5.40;5.00;;;17.40;99.90;;;;;;5073620;28;20697;-64
2022/08/30 03:00:36;;;;;;;5.77;5.27;;;17.40;99.90;;;;;;5074931;28;20210;-64
2022/08/30 03:03:06;;;;;;;6.10;5.50;;;17.40;99.90;;;;;;5073894;28;20190;-64
2022/08/30 03:05:32;;;;;;;6.33;5.67;;;17.30;99.90;;;;;;5085499;28;20219;-63
2022/08/30 03:07:59;;;;;;;7.57;7.00;;;17.20;99.90;;;;;;5093895;28;20659;-64
2022/08/30 03:10:25;;;;;;;7.90;7.17;;;17.30;99.90;;;;;;5082836;28;20451;-64
2022/08/30 03:12:51;;;;;;;6.60;6.20;;;17.30;99.90;;;;;;5073481;28;20736;-63
2022/08/30 03:15:16;;;;;;;7.93;6.03;;;17.30;99.90;;;;;;5082069;28;20181;-63
2022/08/30 03:17:42;;;;;;;6.40;5.43;;;17.40;99.90;;;;;;5093779;28;20594;-64
2022/08/30 03:20:08;;;;;;;7.63;4.77;;;17.30;99.90;;;;;;5085885;28;20274;-63
2022/08/30 03:22:34;;;;;;;8.73;5.03;;;17.40;99.90;;;;;;5073463;28;20189;-63
2022/08/30 03:25:00;;;;;;;5.10;4.63;;;17.40;99.90;;;;;;5074033;28;20206;-64
2022/08/30 03:27:27;;;;;;;6.87;6.27;;;17.50;99.90;;;;;;5073318;28;20235;-64
2022/08/30 03:29:53;;;;;;;9.13;5.67;;;17.60;99.90;;;;;;5077142;28;20463;-64
2022/08/30 03:32:19;;;;;;;5.83;5.23;;;17.50;99.90;;;;;;5093129;28;20201;-64
2022/08/30 03:34:45;;;;;;;5.20;4.70;;;17.50;99.90;;;;;;5090339;28;20202;-63
2022/08/30 03:37:11;;;;;;;6.07;5.57;;;17.60;99.90;;;;;;5073078;28;20173;-62
2022/08/30 03:39:37;;;;;;;6.90;5.13;;;17.50;99.90;;;;;;5073553;28;20185;-64
2022/08/30 03:42:02;;;;;;;5.77;5.13;;;17.50;99.90;;;;;;5093126;28;20198;-64
2022/08/30 03:44:28;;;;;;;5.43;4.97;;;17.50;99.90;;;;;;5092631;28;20692;-64
2022/08/30 03:46:53;;;;;;;6.07;5.67;;;17.30;99.90;;;;;;5073958;28;20247;-64
2022/08/30 03:49:19;;;;;;;5.27;4.97;;;17.20;99.90;;;;;;5072756;28;20585;-64
2022/08/30 03:51:46;;;;;;;5.60;5.10;;;17.10;99.90;;;;;;5089983;28;20304;-64
2022/08/30 03:54:12;;;;;;;6.43;5.97;;;17.10;99.90;;;;;;5078148;28;20182;-67
2022/08/30 03:56:38;;;;;;;5.50;5.00;;;17.00;99.90;;;;;;5072747;28;20235;-64
2022/08/30 03:59:04;;;;;;;5.40;5.00;;;17.00;99.90;;;;;;5084600;28;20715;-64
2022/08/30 04:01:29;;;;;;;5.23;4.83;;;17.00;99.90;;;;;;5093076;28;20219;-64
2022/08/30 04:03:55;;;;;;;8.07;5.53;;;16.90;99.90;;;;;;5080796;28;20206;-63
2022/08/30 04:06:21;;;;;;;5.10;4.70;;;16.90;99.90;;;;;;5072279;28;20212;-64
2022/08/30 04:08:47;;;;;;;5.40;4.90;;;16.80;99.90;;;;;;5081313;28;20180;-63
2022/08/30 04:11:14;;;;;;;7.87;6.07;;;16.70;99.90;;;;;;5092622;28;20173;-64
2022/08/30 04:13:40;;;;;;;9.00;7.43;;;16.60;99.90;;;;;;5084633;28;20658;-63
2022/08/30 04:16:05;;;;;;;6.80;6.20;;;16.60;99.90;;;;;;5072188;28;20182;-64
2022/08/30 04:18:31;;;;;;;6.33;5.77;;;16.60;99.90;;;;;;5073139;28;20651;-65
2022/08/30 04:20:57;;;;;;;7.13;6.53;;;16.50;99.90;;;;;;5072083;28;20640;-65
2022/08/30 04:23:22;;;;;;;7.27;6.57;;;16.50;99.90;;;;;;5075521;28;20197;-66
2022/08/30 04:25:48;;;;;;;8.90;5.33;;;16.50;99.90;;;;;;5092255;28;20725;-63
2022/08/30 04:28:14;;;;;;;6.77;6.17;;;16.50;99.90;;;;;;5089029;28;20174;-64
2022/08/30 04:30:41;;;;;;;6.23;5.73;;;16.40;99.90;;;;;;5072128;28;20252;-64
2022/08/30 04:33:07;;;;;;;7.00;5.60;;;16.50;99.90;;;;;;5072130;28;20243;-64
2022/08/30 04:35:33;;;;;;;5.90;5.33;;;16.50;99.90;;;;;;5091983;28;20543;-64
2022/08/30 04:37:59;;;;;;;7.87;5.57;;;16.50;99.90;;;;;;5092235;28;20177;-63
2022/08/30 04:40:24;;;;;;;6.73;5.63;;;16.60;99.90;;;;;;5072541;28;20193;-63
2022/08/30 04:42:53;;;;;;;5.80;5.40;;;16.60;99.90;;;;;;5074227;28;20570;-64
2022/08/30 04:45:20;;;;;;;5.43;5.03;;;16.60;99.90;;;;;;5091681;28;20204;-63
2022/08/30 04:47:46;;;;;;;5.50;5.10;;;16.70;99.90;;;;;;5077300;28;20174;-64
2022/08/30 04:50:14;;;;;;;5.47;5.07;;;16.70;99.90;;;;;;5071873;28;20650;-66
2022/08/30 04:52:40;;;;;;;6.13;5.53;;;16.80;99.90;;;;;;5085112;28;20216;-64
2022/08/30 04:55:07;;;;;;;6.53;5.30;;;16.90;99.90;;;;;;5091548;28;20181;-64
2022/08/30 04:57:33;;;;;;;6.70;5.50;;;16.90;99.90;;;;;;5080024;28;20182;-63
2022/08/30 04:59:59;;;;;;;9.90;6.07;;;16.90;99.90;;;;;;5070347;28;20182;-64
2022/08/30 05:02:25;;;;;;;6.03;5.53;;;16.90;99.90;;;;;;5081178;28;20201;-64
2022/08/30 05:07:35;;;;;;;6.37;5.73;;;16.90;99.90;;;;;;5080848;28;20185;-63
2022/08/30 05:10:00;;;;;;;5.63;5.23;;;16.90;99.90;;;;;;5071502;28;20237;-63
2022/08/30 05:12:26;;;;;;;9.67;5.60;;;16.90;99.90;;;;;;5072488;28;20228;-63
2022/08/30 05:14:52;;;;;;;5.80;5.40;;;16.90;99.90;;;;;;5071035;28;20651;-65
2022/08/30 05:17:18;;;;;;;6.73;6.13;;;17.00;99.90;;;;;;5078381;28;20268;-63
2022/08/30 05:19:43;;;;;;;9.67;6.30;;;17.10;99.90;;;;;;5091686;28;20458;-63
2022/08/30 05:22:09;;;;;;;8.63;5.90;;;17.10;99.90;;;;;;5085742;28;20198;-63
2022/08/30 05:24:35;;;;;;;5.77;5.27;;;17.20;99.90;;;;;;5070916;28;20202;-63
2022/08/30 05:27:01;;;;;;;5.83;5.30;;;17.20;99.90;;;;;;5074050;28;20165;-64
2022/08/30 05:29:27;;;;;;;5.87;5.23;;;17.30;99.90;;;;;;5091563;28;20177;-63
2022/08/30 05:31:52;;;;;;;7.17;5.30;;;17.30;99.90;;;;;;5089601;28;20219;-64
2022/08/30 05:34:19;;;;;;;5.97;5.40;;;17.30;99.90;;;;;;5091059;28;20684;-64
2022/08/30 05:36:45;;;;;;;5.77;5.27;;;17.30;99.90;;;;;;5090753;28;20187;-64
2022/08/30 05:39:11;;;;;;;6.00;5.50;;;17.40;99.90;;;;;;5071309;28;20174;-63
2022/08/30 05:41:37;;;;;;;6.20;5.63;;;17.40;99.90;;;;;;5071327;28;20205;-64
2022/08/30 05:44:05;;;;;;;6.73;5.90;;;17.40;99.90;;;;;;5082832;28;20225;-64
2022/08/30 05:46:32;;;;;;;6.10;5.57;;;17.40;99.90;;;;;;5071062;28;20258;-65
2022/08/30 05:49:00;;;;;;;6.50;6.10;;;17.50;99.90;;;;;;5071095;28;20166;-63
2022/08/30 05:51:28;;;;;;;7.70;6.93;;;17.50;99.90;;;;;;5071270;28;20538;-63
2022/08/30 05:53:55;;;;;;;7.37;6.87;;;17.60;99.90;;;;;;5086448;28;20209;-66
2022/08/30 05:56:24;;;;;;;9.60;8.70;;;17.80;99.90;;;;;;5091224;28;20166;-65
2022/08/30 05:58:49;;;;;;;8.43;5.90;;;18.10;99.90;;;;;;5076431;28;20189;-65
2022/08/30 06:01:36;;;;;;;6.90;5.20;;;18.30;99.90;;;;;;5071064;28;20171;-64
2022/08/30 06:04:04;;;;;;;5.80;5.20;;;18.60;99.90;;;;;;5071684;28;20198;-64
2022/08/30 06:06:31;;;;;;;6.83;5.47;;;18.80;99.90;;;;;;5070958;28;20554;-64
2022/08/30 06:08:57;;;;;;;5.37;4.90;;;19.00;99.90;;;;;;5085101;28;20173;-64
2022/08/30 06:11:24;;;;;;;6.72;5.90;;;19.20;99.90;;;;;;5091421;28;20174;-64
2022/08/30 06:13:51;;;;;;;5.17;4.70;;;19.40;99.90;;;;;;5077850;28;20190;-63
2022/08/30 06:16:19;;;;;;;5.88;5.22;;;19.50;99.90;;;;;;5074022;28;20189;-63
2022/08/30 06:18:46;;;;;;;6.80;5.20;;;19.70;99.90;;;;;;5070939;28;20162;-63
2022/08/30 06:21:18;;;;;;;6.80;5.38;;;20.00;99.90;;;;;;5081106;28;20181;-65
2022/08/30 06:23:45;;;;;;;6.85;4.75;;;20.30;99.90;;;;;;5089387;28;20276;-64
2022/08/30 06:26:11;;;;;;;13.23;5.63;;;20.70;99.90;;;;;;5087379;28;20212;-65
2022/08/30 06:28:36;;;;;;;10.60;5.32;;;20.90;99.90;;;;;;5077221;28;20175;-65
2022/08/30 06:31:06;;;;;;;5.53;5.05;;;21.10;99.90;;;;;;5081444;28;20236;-65
2022/08/30 06:33:32;;;;;;;4.85;4.45;;;21.40;99.90;;;;;;5093567;28;20647;-64
2022/08/30 06:36:09;;;;;;;4.47;4.07;;;21.70;99.90;;;;;;5087783;28;20178;-65
2022/08/30 06:38:36;;;;;;;7.25;4.32;;;22.00;99.90;;;;;;5074261;28;20667;-64
2022/08/30 06:41:06;;;;;;;9.13;3.92;;;22.10;99.90;;;;;;5079829;28;20173;-64
2022/08/30 06:43:32;;;;;;;6.68;3.58;;;22.30;99.90;;;;;;5093954;28;20197;-64
2022/08/30 06:46:04;;;;;;;3.80;3.50;;;22.40;99.90;;;;;;5088853;28;20251;-65
2022/08/30 06:48:29;;;;;;;5.00;3.88;;;22.50;99.90;;;;;;5073792;28;20517;-65
2022/08/30 06:50:55;;;;;;;6.60;3.97;;;22.40;99.90;;;;;;5077483;28;20176;-64
2022/08/30 06:53:21;;;;;;;5.30;4.10;;;22.40;99.90;;;;;;5093692;28;20209;-65
2022/08/30 06:55:59;;;;;;;5.38;4.05;;;22.40;99.90;;;;;;5092300;28;20548;-65
2022/08/30 06:58:25;;;;;;;7.38;3.55;;;22.60;99.90;;;;;;5093868;28;20256;-65
2022/08/30 07:00:51;;;;;;;6.97;3.58;;;23.10;99.90;;;;;;5091782;28;20181;-65
2022/08/30 07:03:17;;;;;;;3.70;3.40;;;23.50;99.90;;;;;;5073554;28;20667;-65
2022/08/30 07:05:42;;;;;;;11.27;3.97;;;24.10;99.90;;;;;;5073151;28;20625;-64
2022/08/30 07:08:08;;;;;;;4.47;3.50;;;24.40;99.90;;;;;;5093739;28;20186;-64
2022/08/30 07:10:37;;;;;;;4.13;3.80;;;24.50;99.90;;;;;;5093662;28;20176;-65
2022/08/30 07:13:03;;;;;;;4.22;3.75;;;24.40;99.90;;;;;;5074530;28;20522;-64
2022/08/30 07:15:28;;;;;;;8.77;3.92;;;24.30;99.90;;;;;;5073210;28;20170;-64
2022/08/30 07:20:38;;;;;;;4.78;3.47;;;24.00;99.90;;;;;;5093535;28;20184;-65
2022/08/30 07:23:04;;;;;;;5.15;3.95;;;23.90;99.90;;;;;;5075433;28;20194;-65
2022/08/30 07:25:29;;;;;;;6.53;3.58;;;24.00;99.90;;;;;;5087285;28;20231;-65
2022/08/30 07:27:55;;;;;;;4.03;3.63;;;24.10;99.90;;;;;;5093305;28;20169;-64
2022/08/30 07:30:21;;;;;;;5.50;3.58;;;24.40;99.90;;;;;;5080118;28;20189;-65
2022/08/30 07:32:48;;;;;;;3.97;3.42;;;24.70;99.90;;;;;;5073001;28;20190;-65
2022/08/30 07:35:13;;;;;;;6.40;4.28;;;24.80;99.90;;;;;;5073928;28;20174;-65
2022/08/30 07:37:40;;;;;;;4.20;3.78;;;24.70;99.90;;;;;;5073146;28;20181;-65
2022/08/30 07:40:06;;;;;;;4.13;3.47;;;24.80;99.90;;;;;;5080567;28;20677;-65
2022/08/30 07:42:32;;;;;;;4.05;3.70;;;24.90;99.90;;;;;;5093087;28;20219;-66
2022/08/30 07:44:57;;;;;;;4.63;3.83;;;25.30;99.90;;;;;;5091070;28;20690;-64
2022/08/30 07:47:23;;;;;;;3.63;3.33;;;25.70;99.90;;;;;;5092732;28;20234;-64
2022/08/30 07:49:49;;;;;;;4.07;3.63;;;26.10;99.90;;;;;;5091308;28;20206;-65
2022/08/30 07:52:14;;;;;;;5.40;3.83;;;26.30;99.90;;;;;;5092771;28;20201;-66
2022/08/30 07:54:41;;;;;;;4.43;3.67;;;26.50;99.90;;;;;;5088719;28;20169;-65
2022/08/30 07:57:07;;;;;;;6.45;3.38;;;26.50;99.90;;;;;;5072531;28;20166;-65
2022/08/30 07:59:32;;;;;;;3.97;3.63;;;26.70;99.90;;;;;;5074328;28;20211;-66
2022/08/30 08:01:58;;;;;;;4.50;3.92;;;26.60;99.90;;;;;;5092185;28;20642;-65
2022/08/30 08:04:24;;;;;;;4.78;3.72;;;26.90;99.90;;;;;;5091818;28;20177;-65
2022/08/30 08:06:49;;;;;;;5.03;4.57;;;26.90;99.90;;;;;;5091168;28;20173;-65
2022/08/30 08:09:15;;;;;;;5.40;4.80;;;27.00;99.90;;;;;;5092521;28;20166;-65
2022/08/30 08:11:41;;;;;;;4.53;4.13;;;27.10;99.90;;;;;;5073745;28;20639;-66
2022/08/30 08:14:07;;;;;;;7.68;3.17;;;27.40;99.90;;;;;;5071878;28;20647;-65
2022/08/30 08:16:34;;;;;;;4.32;3.97;;;27.90;99.90;;;;;;5088486;28;20173;-66
2022/08/30 08:19:00;;;;;;;5.10;3.65;;;28.30;99.90;;;;;;5076815;28;20181;-65
2022/08/30 08:21:27;;;;;;;5.90;5.50;;;28.60;99.90;;;;;;5072164;28;20166;-65
2022/08/30 08:23:53;;;;;;;5.30;4.80;;;28.90;99.90;;;;;;5072887;28;20603;-66
2022/08/30 08:26:19;;;;;;;3.85;3.53;;;29.20;99.90;;;;;;5071518;28;20509;-66
2022/08/30 08:28:46;;;;;;;5.22;3.05;;;29.20;99.90;;;;;;5083096;28;20285;-65
2022/08/30 08:31:23;;;;;;;3.70;3.35;;;29.30;99.90;;;;;;5092135;28;20174;-65
2022/08/30 08:33:48;;;;;;;4.97;3.05;;;29.40;99.90;;;;;;5080086;28;20194;-66
2022/08/30 08:36:14;;;;;;;3.80;3.50;;;29.10;99.90;;;;;;5071853;28;20177;-64
2022/08/30 08:38:40;;;;;;;3.55;3.25;;;29.00;99.90;;;;;;5072734;28;20193;-65
2022/08/30 08:41:12;;;;;;;4.03;3.72;;;28.70;99.90;;;;;;5077622;28;20550;-65
2022/08/30 08:43:38;;;;;;;5.22;3.67;;;28.50;99.90;;;;;;5091894;28;20197;-65
2022/08/30 08:46:22;;;;;;;5.03;3.38;;;28.70;99.90;;;;;;5090017;28;20239;-65
2022/08/30 08:48:50;;;;;;;3.75;3.45;;;29.20;99.90;;;;;;5091667;28;20180;-65
2022/08/30 08:54:14;;;;;;;5.63;3.30;;;30.00;99.90;;;;;;5071440;28;20247;-66
2022/08/30 08:56:40;;;;;;;4.70;2.70;;;30.30;99.90;;;;;;5072577;28;20169;-65
2022/08/30 08:59:08;;;;;;;3.28;2.95;;;30.70;99.90;;;;;;5071549;28;20181;-64
2022/08/30 09:01:34;;;;;;;4.25;3.17;;;31.10;99.90;;;;;;5081440;28;20189;-66
2022/08/30 09:04:09;;;;;;;3.42;3.15;;;31.00;99.90;;;;;;5091398;28;20206;-64
2022/08/30 09:06:57;;;;;;;5.35;3.65;;;30.80;99.90;;;;;;5081933;28;20267;-64
2022/08/30 09:09:28;;;;;;;5.05;2.92;;;30.60;99.90;;;;;;5071566;28;20523;-65
2022/08/30 09:11:54;;;;;;;3.53;3.22;;;31.00;99.90;;;;;;5072404;28;20204;-66
2022/08/30 09:14:28;;;;;;;3.50;3.20;;;31.20;98.70;;;;;;5070849;28;20651;-66
2022/08/30 09:17:06;;;;;;;5.85;3.30;;;31.20;99.90;;;;;;5069434;28;20641;-65
2022/08/30 09:19:50;;;;;;;4.22;3.25;;;31.50;98.10;;;;;;5071521;28;20738;-66
2022/08/30 09:22:36;;;;;;;4.80;3.20;;;31.60;99.90;;;;;;5084271;28;20199;-66
2022/08/30 09:25:05;;;;;;;3.47;3.15;;;31.70;98.40;;;;;;5091029;28;20189;-65
2022/08/30 09:27:36;;;;;;;3.95;3.13;;;31.70;98.50;;;;;;5075021;28;20182;-66
2022/08/30 09:30:17;;;;;;;3.40;3.10;;;32.00;98.00;;;;;;5071156;28;20166;-66
2022/08/30 09:32:59;;;;;;;4.85;4.25;;;32.70;96.50;;;;;;5086483;28;20490;-66
2022/08/30 09:35:36;;;;;;;6.15;4.28;;;33.00;94.90;;;;;;5090986;28;20248;-65
2022/08/30 09:38:15;;;;;;;4.93;4.53;;;33.40;93.70;;;;;;5073306;28;20188;-66
2022/08/30 09:40:44;;;;;;;5.25;4.85;;;33.60;90.90;;;;;;5087975;28;20188;-66
2022/08/30 09:43:21;;;;;;;4.53;4.22;;;33.90;91.20;;;;;;5090945;28;20190;-65
2022/08/30 09:46:01;;;;;;;4.35;3.85;;;34.10;88.90;;;;;;5077079;28;20255;-65
2022/08/30 09:48:29;;;;;;;6.00;3.80;;;34.60;88.00;;;;;;5071069;28;20166;-65
2022/08/30 09:51:10;;;;;;;4.20;2.88;;;34.90;86.40;;;;;;5071008;28;20174;-65
2022/08/30 09:54:13;;;;;;;3.15;2.85;;;34.90;84.40;;;;;;5070598;28;20201;-65
2022/08/30 09:56:46;;;;;;;2.97;2.72;;;34.60;78.10;;;;;;5051134;28;20259;-66
2022/08/30 09:59:31;;;;;;;3.10;2.80;;;34.20;76.30;;;;;;5054219;28;20171;-65
2022/08/30 10:02:12;;;;;;;7.25;4.25;;;33.50;77.90;;;;;;5091491;28;20200;-65
2022/08/30 10:04:56;;;;;;;6.43;3.30;;;32.70;77.30;;;;;;5085951;28;20292;-64
2022/08/30 10:07:33;;;;;;;3.55;3.25;;;32.50;78.40;;;;;;5074687;28;20206;-64
2022/08/30 10:10:13;;;;;;;3.90;3.17;;;32.80;79.20;;;;;;5085995;28;20259;-65
2022/08/30 10:12:42;;;;;;;4.68;3.38;;;33.20;76.30;;;;;;5083981;28;20202;-65
2022/08/30 10:15:49;;;;;;;3.75;3.15;;;33.40;75.90;;;;;;5074009;28;20178;-66
2022/08/30 10:18:20;;;;;;;3.90;3.05;;;33.50;76.50;;;;;;5088877;28;20220;-65
2022/08/30 10:21:20;;;;;;;3.80;2.97;;;34.00;75.20;;;;;;5094592;28;20706;-66
2022/08/30 10:24:10;;;;;;;3.33;3.00;;;34.30;74.70;;;;;;5075760;28;20204;-66
2022/08/30 10:26:41;;;;;;;6.30;2.92;;;34.70;74.90;;;;;;5072380;28;20249;-65
2022/08/30 10:29:18;;;;;;;3.45;3.08;;;35.10;73.40;;;;;;5054116;28;20639;-65
2022/08/30 10:31:46;;;;;;;4.03;2.92;;;35.10;72.90;;;;;;5054573;28;20177;-65
2022/08/30 10:34:25;;;;;;;3.10;2.80;;;35.00;71.20;;;;;;5053754;28;20205;-66
2022/08/30 10:37:01;;;;;;;3.22;2.92;;;34.40;71.80;;;;;;5056328;28;20189;-66
2022/08/30 10:39:34;;;;;;;5.00;3.15;;;34.40;74.60;;;;;;5074015;28;20212;-65
2022/08/30 10:42:20;;;;;;;3.08;2.78;;;34.30;70.10;;;;;;5090282;28;20208;-66
2022/08/30 10:44:54;;;;;;;3.80;3.13;;;34.00;69.90;;;;;;5093897;28;20330;-65
2022/08/30 10:47:25;;;;;;;3.88;3.25;;;33.30;70.50;;;;;;5092408;28;20169;-66
2022/08/30 10:50:00;;;;;;;3.55;3.25;;;32.70;69.50;;;;;;5094334;28;20180;-66
2022/08/30 10:52:44;;;;;;;3.97;3.60;;;32.20;71.10;;;;;;5075197;28;20201;-65
2022/08/30 10:55:21;;;;;;;4.20;3.83;;;31.80;73.40;;;;;;5073564;28;20189;-63
2022/08/30 10:57:47;;;;;;;6.18;5.65;;;31.80;74.30;;;;;;5093681;28;20177;-64
2022/08/30 11:00:23;;;;;;;4.07;3.78;;;31.80;76.20;;;;;;5088767;28;20210;-64
2022/08/30 11:03:07;;;;;;;5.18;3.20;;;32.30;76.60;;;;;;5073583;28;20190;-64
2022/08/30 11:05:38;;;;;;;4.97;3.22;;;32.60;74.90;;;;;;5080140;28;20593;-63
2022/08/30 11:08:18;;;;;;;3.47;3.15;;;33.00;71.60;;;;;;5093822;28;20258;-65
2022/08/30 11:10:52;;;;;;;4.32;3.58;;;33.80;71.90;;;;;;5082755;28;20182;-64
2022/08/30 11:13:25;;;;;;;3.72;3.42;;;33.80;69.40;;;;;;5093180;28;20204;-66
2022/08/30 11:16:01;;;;;;;4.05;2.95;;;33.60;74.30;;;;;;5085435;28;20199;-64
2022/08/30 11:18:30;;;;;;;3.20;2.83;;;33.30;76.30;;;;;;5073690;28;20197;-65
2022/08/30 11:21:33;;;;;;;3.45;2.72;;;33.30;75.40;;;;;;5081398;28;20651;-64
2022/08/30 11:24:06;;;;;;;4.80;3.83;;;33.50;77.70;;;;;;5093059;28;20561;-64
2022/08/30 11:26:44;;;;;;;5.05;3.58;;;33.70;75.40;;;;;;5090668;28;20196;-64
2022/08/30 11:29:36;;;;;;;5.90;3.60;;;33.90;73.40;;;;;;5093554;28;20661;-66
2022/08/30 11:32:16;;;;;;;3.95;3.53;;;33.90;74.40;;;;;;5069670;28;20194;-65
2022/08/30 11:34:44;;;;;;;5.25;3.15;;;34.00;74.90;;;;;;5073171;28;20620;-67
2022/08/30 11:37:28;;;;;;;4.18;3.22;;;34.00;73.10;;;;;;5092785;28;20213;-65
2022/08/30 11:39:56;;;;;;;3.45;3.15;;;33.70;71.50;;;;;;5091357;28;20749;-66
2022/08/30 11:42:38;;;;;;;3.97;3.53;;;33.20;75.30;;;;;;5081567;28;20259;-66
2022/08/30 11:45:22;;;;;;;3.92;3.17;;;33.00;74.60;;;;;;5074853;28;20618;-65
2022/08/30 11:48:00;;;;;;;6.25;3.60;;;33.20;74.10;;;;;;5093079;28;20661;-64
2022/08/30 11:50:49;;;;;;;3.70;3.00;;;33.80;77.50;;;;;;5087499;28;20178;-64
2022/08/30 11:53:41;;;;;;;3.35;3.05;;;34.00;73.80;;;;;;5081844;28;20841;-63
2022/08/30 11:56:20;;;;;;;3.38;3.05;;;34.30;75.00;;;;;;5092866;28;20519;-65
2022/08/30 11:59:00;;;;;;;3.67;3.38;;;34.10;74.40;;;;;;5081381;28;20180;-65
2022/08/30 12:01:25;;;;;;;3.55;3.33;;;33.80;74.30;;;;;;5072572;28;20257;-65
2022/08/30 12:04:03;;;;;;;3.92;3.28;;;33.90;75.50;;;;;;5083220;28;20287;-65
2022/08/30 12:07:02;;;;;;;7.63;3.30;;;34.10;75.90;;;;;;5080587;28;20212;-65
2022/08/30 12:09:29;;;;;;;5.13;3.33;;;34.50;72.10;;;;;;5072362;28;20580;-66
2022/08/30 12:12:08;;;;;;;4.22;3.35;;;34.20;73.70;;;;;;5086941;28;20183;-66
2022/08/30 12:14:47;;;;;;;4.65;3.33;;;33.80;73.20;;;;;;5092215;28;20169;-64
2022/08/30 12:20:44;;;;;;;9.18;3.85;;;33.50;77.70;;;;;;5072576;28;20176;-65
2022/08/30 12:23:40;;;;;;;4.20;3.33;;;33.90;74.80;;;;;;5052260;28;20187;-63
2022/08/30 12:26:30;;;;;;;3.35;3.13;;;33.50;73.30;;;;;;5046774;28;20217;-64
2022/08/30 12:29:19;;;;;;;4.97;3.67;;;33.30;75.50;;;;;;5092152;28;20646;-65
2022/08/30 12:32:14;;;;;;;3.80;3.50;;;33.50;76.10;;;;;;5090462;28;20188;-64
2022/08/30 12:34:40;;;;;;;6.10;3.17;;;33.50;75.80;;;;;;5092013;28;20168;-65
2022/08/30 12:37:10;;;;;;;6.28;3.65;;;33.50;77.30;;;;;;5078285;28;20178;-64
2022/08/30 12:39:37;;;;;;;3.60;3.40;;;33.70;74.80;;;;;;5075144;28;20529;-63
2022/08/30 12:42:16;;;;;;;6.60;3.65;;;33.70;74.40;;;;;;5092049;28;20193;-65
2022/08/30 12:44:42;;;;;;;3.72;3.42;;;33.40;76.70;;;;;;5087708;28;20378;-63
2022/08/30 12:47:11;;;;;;;4.15;3.75;;;33.30;75.40;;;;;;5071778;28;20256;-64
2022/08/30 12:49:38;;;;;;;5.82;3.38;;;33.00;74.30;;;;;;5074024;28;20173;-65
2022/08/30 12:52:27;;;;;;;3.75;3.45;;;32.80;79.10;;;;;;5091626;28;20217;-63
2022/08/30 12:54:55;;;;;;;4.53;3.55;;;32.90;76.90;;;;;;5087556;28;20185;-65
2022/08/30 12:58:01;;;;;;;7.93;3.72;;;33.00;76.20;;;;;;5071394;28;20711;-63
2022/08/30 13:00:36;;;;;;;4.68;3.92;;;33.40;75.80;;;;;;5087777;28;20201;-65
2022/08/30 13:03:35;;;;;;;5.10;3.50;;;33.50;75.20;;;;;;5082828;28;20200;-63
2022/08/30 13:06:02;;;;;;;3.88;3.50;;;33.30;74.30;;;;;;5051500;28;20207;-63
2022/08/30 13:08:35;;;;;;;3.78;3.53;;;33.30;77.50;;;;;;5051919;28;20166;-64
2022/08/30 13:11:07;;;;;;;5.07;3.17;;;33.30;74.50;;;;;;5091607;28;20170;-64
2022/08/30 13:13:36;;;;;;;3.92;3.38;;;33.10;73.90;;;;;;5090806;28;20193;-63